Sandwick, United Kingdom
Current Conditions -  °F | °C
As of 11:20 PM on Friday 19 Dec 2014 (Local Time) from EGPB Reporting Station
Rain Showers Rain Showers  
Wind Chill: 32°   Ceiling: Unl
Heat Index: 43°   Visibility: 5mi
Dew Point: 37°   Wind: 31mph
Humidity: 81%   Direction: 260°W
Pressure: 29.23"   Gusts: NA
Location:  60°N, 1.25°W
Report Text: EGPB 192320Z AUTO 26027KT 8000 -SHRA FEW032/// 06/03 Q0990
Loading
Personal Weather Stations






























Interactive Weather Map New forecast layout! Learn more

10-Day Weather Forecast

Advertisements
Track Severe Weather on mobile